Time;durP1;ratioP1;P1;durP2;ratioP2;P2;SDS_P1;SDS_P2;PMS_P1;PMS_P2;Temp;Humidity;BMP_temperature;BMP_pressure;BME280_temperature;BME280_humidity;BME280_pressure;Samples;Min_cycle;Max_cycle;Signal;HPM_P1;HPM_P2
2024/03/26 00:00:17;;;;;;;;;;;22.20;35.70;;;;;;5073573;28;19931;-62
2024/03/26 00:02:43;;;;;;;;;;;22.20;35.60;;;;;;5073490;28;19936;-62
2024/03/26 00:05:09;;;;;;;;;;;22.20;35.60;;;;;;5073568;28;19925;-61
2024/03/26 00:07:35;;;;;;;;;;;22.20;35.70;;;;;;5073472;28;20081;-61
2024/03/26 00:10:01;;;;;;;;;;;22.20;35.70;;;;;;5073255;28;19929;-61
2024/03/26 00:12:27;;;;;;;;;;;22.20;35.70;;;;;;5073259;28;19924;-62
2024/03/26 00:14:52;;;;;;;;;;;22.10;35.70;;;;;;5073154;28;19978;-61
2024/03/26 00:17:18;;;;;;;;;;;22.20;36.30;;;;;;5073390;28;19967;-61
2024/03/26 00:19:44;;;;;;;;;;;22.10;35.70;;;;;;5072970;28;20370;-62
2024/03/26 00:22:10;;;;;;;;;;;22.10;35.70;;;;;;5073354;28;19924;-61
2024/03/26 00:24:36;;;;;;;;;;;22.10;35.70;;;;;;5073477;28;19935;-62
2024/03/26 00:27:02;;;;;;;;;;;22.10;35.70;;;;;;5072836;28;20350;-62
2024/03/26 00:29:27;;;;;;;;;;;22.10;35.70;;;;;;5073317;28;19970;-62
2024/03/26 00:31:53;;;;;;;;;;;22.10;35.70;;;;;;5072914;28;19925;-62
2024/03/26 00:34:19;;;;;;;;;;;22.20;35.70;;;;;;5072833;28;19924;-62
2024/03/26 00:36:45;;;;;;;;;;;22.20;35.60;;;;;;5072811;28;19931;-62
2024/03/26 00:39:11;;;;;;;;;;;22.20;35.60;;;;;;5072804;28;19925;-61
2024/03/26 00:41:37;;;;;;;;;;;22.20;35.60;;;;;;5072648;28;19924;-62
2024/03/26 00:44:02;;;;;;;;;;;22.20;35.60;;;;;;5072806;28;19974;-62
2024/03/26 00:46:28;;;;;;;;;;;22.10;35.60;;;;;;5072509;28;19924;-63
2024/03/26 00:48:54;;;;;;;;;;;22.10;35.60;;;;;;5072967;28;19928;-62
2024/03/26 00:51:20;;;;;;;;;;;22.10;35.70;;;;;;5072857;28;19951;-62
2024/03/26 00:53:46;;;;;;;;;;;22.10;35.70;;;;;;5072642;28;19931;-62
2024/03/26 00:56:11;;;;;;;;;;;22.10;35.70;;;;;;5072299;28;19925;-62
2024/03/26 00:58:37;;;;;;;;;;;22.10;35.70;;;;;;5072569;28;19924;-62
2024/03/26 01:01:07;;;;;;;;;;;22.10;35.70;;;;;;5072590;28;19924;-62
2024/03/26 01:03:33;;;;;;;;;;;22.00;35.70;;;;;;5072713;28;19946;-62
2024/03/26 01:05:59;;;;;;;;;;;22.00;35.80;;;;;;5072624;28;20320;-61
2024/03/26 01:08:25;;;;;;;;;;;22.00;35.80;;;;;;5072456;28;20362;-62
2024/03/26 01:10:51;;;;;;;;;;;22.00;35.80;;;;;;5071763;28;19925;-62
2024/03/26 01:13:17;;;;;;;;;;;22.00;35.80;;;;;;5072582;28;19954;-61
2024/03/26 01:15:43;;;;;;;;;;;22.00;35.80;;;;;;5072333;28;19951;-62
2024/03/26 01:18:10;;;;;;;;;;;22.00;35.80;;;;;;5072496;28;20321;-62
2024/03/26 01:20:36;;;;;;;;;;;22.00;35.80;;;;;;5072121;28;19925;-61
2024/03/26 01:23:02;;;;;;;;;;;22.00;35.80;;;;;;5039187;28;19924;-61
2024/03/26 01:25:28;;;;;;;;;;;22.00;35.80;;;;;;5072084;28;19924;-62
2024/03/26 01:27:54;;;;;;;;;;;22.00;35.80;;;;;;5072199;28;19932;-62
2024/03/26 01:30:20;;;;;;;;;;;22.00;35.80;;;;;;5071939;28;19925;-62
2024/03/26 01:32:46;;;;;;;;;;;22.00;35.90;;;;;;5072581;28;19931;-62
2024/03/26 01:35:12;;;;;;;;;;;22.00;35.90;;;;;;5072088;28;19983;-62
2024/03/26 01:37:38;;;;;;;;;;;22.00;35.90;;;;;;5055646;28;19924;-62
2024/03/26 01:40:04;;;;;;;;;;;22.00;35.90;;;;;;5071911;28;20293;-61
2024/03/26 01:42:30;;;;;;;;;;;22.00;35.90;;;;;;5072000;28;19924;-62
2024/03/26 01:44:56;;;;;;;;;;;22.00;35.80;;;;;;5071924;28;19931;-61
2024/03/26 01:47:22;;;;;;;;;;;22.00;35.80;;;;;;5072337;28;19929;-62
2024/03/26 01:49:48;;;;;;;;;;;22.00;35.80;;;;;;5071852;28;19928;-61
2024/03/26 01:52:14;;;;;;;;;;;22.00;35.70;;;;;;5055137;28;19928;-61
2024/03/26 01:54:40;;;;;;;;;;;22.00;35.80;;;;;;5072099;28;19970;-62
2024/03/26 01:57:06;;;;;;;;;;;22.00;35.70;;;;;;5072028;28;19932;-61
2024/03/26 01:59:32;;;;;;;;;;;22.00;35.70;;;;;;5072475;28;19925;-61
2024/03/26 02:01:58;;;;;;;;;;;22.00;35.80;;;;;;5071966;28;19925;-61
2024/03/26 02:04:24;;;;;;;;;;;22.00;35.80;;;;;;5071778;28;19954;-61
2024/03/26 02:06:50;;;;;;;;;;;22.00;35.80;;;;;;5071612;28;19924;-61
2024/03/26 02:09:16;;;;;;;;;;;22.00;35.80;;;;;;5072048;28;19930;-61
2024/03/26 02:11:42;;;;;;;;;;;22.00;35.80;;;;;;5072130;28;19924;-62
2024/03/26 02:14:08;;;;;;;;;;;22.00;35.90;;;;;;5071529;28;20085;-61
2024/03/26 02:16:33;;;;;;;;;;;22.00;35.90;;;;;;5071661;28;19929;-61
2024/03/26 02:18:59;;;;;;;;;;;21.90;35.80;;;;;;5071364;28;19928;-61
2024/03/26 02:21:25;;;;;;;;;;;21.90;35.80;;;;;;5071303;28;19963;-61
2024/03/26 02:23:51;;;;;;;;;;;21.90;35.90;;;;;;5074002;28;19931;-61
2024/03/26 02:26:20;;;;;;;;;;;21.90;35.90;;;;;;5075641;28;19924;-61
2024/03/26 02:28:46;;;;;;;;;;;21.90;35.90;;;;;;5075325;28;19925;-62
2024/03/26 02:31:12;;;;;;;;;;;21.90;35.90;;;;;;5075445;28;19924;-61
2024/03/26 02:33:37;;;;;;;;;;;22.00;36.00;;;;;;5075016;28;20023;-61
2024/03/26 02:36:03;;;;;;;;;;;21.90;35.90;;;;;;5074860;28;19925;-61
2024/03/26 02:38:29;;;;;;;;;;;21.90;35.90;;;;;;5075181;28;19924;-61
2024/03/26 02:40:55;;;;;;;;;;;21.90;35.90;;;;;;5075079;28;19932;-61
2024/03/26 02:43:21;;;;;;;;;;;22.00;36.00;;;;;;5074854;28;19929;-61
2024/03/26 02:45:47;;;;;;;;;;;21.90;35.90;;;;;;5075029;28;19925;-62
2024/03/26 02:48:13;;;;;;;;;;;21.90;35.90;;;;;;5075038;28;19935;-61
2024/03/26 02:50:39;;;;;;;;;;;21.90;35.90;;;;;;5074852;28;19925;-61
2024/03/26 02:53:05;;;;;;;;;;;22.00;35.90;;;;;;5075279;28;19943;-61
2024/03/26 02:55:31;;;;;;;;;;;22.00;35.90;;;;;;5074844;28;20377;-61
2024/03/26 02:57:57;;;;;;;;;;;22.00;35.90;;;;;;5074672;28;19947;-61
2024/03/26 03:00:23;;;;;;;;;;;22.00;35.80;;;;;;5075110;28;19974;-61
2024/03/26 03:02:49;;;;;;;;;;;22.00;35.80;;;;;;5074701;28;19925;-61
2024/03/26 03:05:15;;;;;;;;;;;22.00;35.80;;;;;;5074839;28;19931;-61
2024/03/26 03:07:41;;;;;;;;;;;22.00;35.80;;;;;;5074702;28;20352;-60
2024/03/26 03:10:07;;;;;;;;;;;22.00;35.80;;;;;;5074462;28;19925;-61
2024/03/26 03:12:33;;;;;;;;;;;22.00;35.80;;;;;;5074581;28;19924;-61
2024/03/26 03:14:59;;;;;;;;;;;22.00;35.80;;;;;;5074445;28;19925;-61
2024/03/26 03:17:25;;;;;;;;;;;22.00;35.80;;;;;;5074769;28;20331;-63
2024/03/26 03:19:51;;;;;;;;;;;22.00;35.80;;;;;;5074574;28;20374;-64
2024/03/26 03:22:16;;;;;;;;;;;22.00;35.80;;;;;;5057985;28;20281;-62
2024/03/26 03:24:44;;;;;;;;;;;22.00;35.80;;;;;;5065403;28;20461;-62
2024/03/26 03:27:10;;;;;;;;;;;22.00;35.80;;;;;;5054530;28;19931;-64
2024/03/26 03:29:36;;;;;;;;;;;21.90;35.80;;;;;;5055008;28;19972;-64
2024/03/26 03:32:02;;;;;;;;;;;21.90;36.40;;;;;;5073486;28;19951;-66
2024/03/26 03:34:27;;;;;;;;;;;21.90;35.90;;;;;;5073633;28;19924;-66
2024/03/26 03:36:53;;;;;;;;;;;21.90;35.90;;;;;;5073953;28;19929;-65
2024/03/26 03:39:19;;;;;;;;;;;21.90;35.90;;;;;;5074191;28;19928;-62
2024/03/26 03:41:45;;;;;;;;;;;21.90;35.90;;;;;;5074119;28;19924;-62
2024/03/26 03:44:12;;;;;;;;;;;21.90;35.90;;;;;;5074166;28;19951;-61
2024/03/26 03:46:37;;;;;;;;;;;21.90;35.90;;;;;;5073788;28;19932;-61
2024/03/26 03:49:03;;;;;;;;;;;21.90;35.90;;;;;;5074078;28;19924;-62
2024/03/26 03:51:29;;;;;;;;;;;21.90;35.90;;;;;;5074135;28;19924;-61
2024/03/26 03:53:55;;;;;;;;;;;21.90;35.90;;;;;;5073992;28;19925;-61
2024/03/26 03:56:21;;;;;;;;;;;21.90;35.90;;;;;;5073599;28;20024;-61
2024/03/26 03:58:47;;;;;;;;;;;21.90;35.90;;;;;;5073744;28;19925;-61
2024/03/26 04:01:12;;;;;;;;;;;21.90;35.90;;;;;;5073694;28;19924;-61
2024/03/26 04:03:38;;;;;;;;;;;21.90;35.90;;;;;;5073547;28;20360;-61
2024/03/26 04:06:04;;;;;;;;;;;21.90;35.90;;;;;;5073624;28;19929;-61
2024/03/26 04:08:30;;;;;;;;;;;21.90;35.90;;;;;;5073426;28;19928;-61
2024/03/26 04:10:57;;;;;;;;;;;21.90;35.90;;;;;;5073447;28;19924;-61
2024/03/26 04:13:23;;;;;;;;;;;22.00;35.90;;;;;;5073674;28;19924;-61
2024/03/26 04:15:48;;;;;;;;;;;21.90;35.80;;;;;;5073077;28;20354;-61
2024/03/26 04:18:14;;;;;;;;;;;22.00;35.80;;;;;;5073277;28;19939;-61
2024/03/26 04:20:40;;;;;;;;;;;22.00;35.80;;;;;;5072826;28;19932;-61
2024/03/26 04:23:06;;;;;;;;;;;22.00;35.80;;;;;;5073260;28;20380;-62
2024/03/26 04:25:32;;;;;;;;;;;22.00;35.80;;;;;;5073424;28;20297;-61
2024/03/26 04:27:58;;;;;;;;;;;22.00;35.80;;;;;;5073020;28;19932;-61
2024/03/26 04:30:24;;;;;;;;;;;22.00;35.80;;;;;;5056294;28;19925;-61
2024/03/26 04:32:49;;;;;;;;;;;21.90;35.80;;;;;;5072805;28;19925;-61
2024/03/26 04:35:15;;;;;;;;;;;21.90;35.80;;;;;;5072836;28;20012;-61
2024/03/26 04:37:41;;;;;;;;;;;21.90;35.80;;;;;;5072811;28;20302;-61
2024/03/26 04:40:07;;;;;;;;;;;21.90;35.50;;;;;;5072611;28;19931;-62
2024/03/26 04:42:33;;;;;;;;;;;21.90;35.10;;;;;;5072942;28;19970;-62
2024/03/26 04:44:59;;;;;;;;;;;22.00;34.80;;;;;;5072474;28;20331;-61
2024/03/26 04:47:25;;;;;;;;;;;22.00;34.50;;;;;;5072392;28;20325;-61
2024/03/26 04:49:51;;;;;;;;;;;22.10;34.30;;;;;;5047442;28;20416;-61
2024/03/26 04:52:17;;;;;;;;;;;22.10;34.10;;;;;;5063003;28;19928;-62
2024/03/26 04:54:43;;;;;;;;;;;22.10;33.90;;;;;;5061241;28;19952;-62
2024/03/26 04:57:09;;;;;;;;;;;22.10;33.80;;;;;;5061694;28;19932;-62
2024/03/26 04:59:34;;;;;;;;;;;22.10;33.70;;;;;;5060118;28;19955;-62
2024/03/26 05:02:00;;;;;;;;;;;22.10;33.60;;;;;;5052289;28;20370;-61
2024/03/26 05:04:26;;;;;;;;;;;22.20;33.40;;;;;;5052764;28;19924;-61
2024/03/26 05:06:52;;;;;;;;;;;22.20;33.40;;;;;;5069231;28;19925;-61
2024/03/26 05:09:18;;;;;;;;;;;22.20;33.20;;;;;;5072149;28;20011;-61
2024/03/26 05:11:44;;;;;;;;;;;22.20;33.00;;;;;;5049694;28;19928;-61
2024/03/26 05:14:10;;;;;;;;;;;22.30;32.80;;;;;;5061720;28;20365;-61
2024/03/26 05:16:36;;;;;;;;;;;22.20;32.70;;;;;;5062617;28;19924;-61
2024/03/26 05:19:02;;;;;;;;;;;22.20;32.60;;;;;;5061223;28;19978;-61
2024/03/26 05:21:28;;;;;;;;;;;22.30;32.60;;;;;;5065935;28;19924;-62
2024/03/26 05:23:54;;;;;;;;;;;22.30;32.50;;;;;;5071992;28;19950;-61
2024/03/26 05:26:20;;;;;;;;;;;22.30;32.60;;;;;;5071935;28;19925;-62
2024/03/26 05:28:45;;;;;;;;;;;22.30;32.50;;;;;;5072050;28;19976;-61
2024/03/26 05:31:18;;;;;;;;;;;22.30;32.40;;;;;;5072022;28;19924;-61
2024/03/26 05:33:45;;;;;;;;;;;22.40;32.40;;;;;;5072280;28;19928;-61
2024/03/26 05:36:12;;;;;;;;;;;22.40;32.30;;;;;;5071837;28;20388;-61
2024/03/26 05:38:38;;;;;;;;;;;22.40;32.10;;;;;;5071373;28;19924;-62
2024/03/26 05:41:04;;;;;;;;;;;22.50;32.10;;;;;;5072098;28;19924;-61
2024/03/26 05:43:29;;;;;;;;;;;22.50;32.00;;;;;;5071860;28;19970;-61
2024/03/26 05:45:55;;;;;;;;;;;22.50;31.90;;;;;;5070863;28;19924;-61
2024/03/26 05:48:21;;;;;;;;;;;22.50;31.90;;;;;;5071986;28;19931;-62
2024/03/26 05:50:47;;;;;;;;;;;22.60;31.80;;;;;;5071431;28;19948;-61
2024/03/26 05:53:13;;;;;;;;;;;22.60;31.70;;;;;;5067864;28;19924;-61
2024/03/26 05:55:39;;;;;;;;;;;22.60;31.60;;;;;;5060356;28;20041;-61
2024/03/26 05:58:05;;;;;;;;;;;22.60;31.50;;;;;;5075218;28;19928;-61
2024/03/26 06:00:31;;;;;;;;;;;22.60;31.40;;;;;;5058945;28;20054;-62
2024/03/26 06:02:57;;;;;;;;;;;22.70;31.40;;;;;;5075443;28;19925;-61
2024/03/26 06:05:23;;;;;;;;;;;22.70;31.30;;;;;;5073242;28;19925;-62
2024/03/26 06:07:49;;;;;;;;;;;22.70;31.20;;;;;;5072949;28;19924;-61
2024/03/26 06:10:14;;;;;;;;;;;22.70;31.20;;;;;;5075203;28;20297;-60
2024/03/26 06:12:41;;;;;;;;;;;22.70;31.10;;;;;;5075290;28;19925;-60
2024/03/26 06:15:10;;;;;;;;;;;22.80;31.10;;;;;;5064654;28;19929;-61
2024/03/26 06:17:35;;;;;;;;;;;22.80;30.90;;;;;;5058787;28;20369;-61
2024/03/26 06:20:04;;;;;;;;;;;22.80;31.00;;;;;;5048568;28;19951;-61
2024/03/26 06:22:30;;;;;;;;;;;22.80;30.80;;;;;;5062560;28;19936;-62
2024/03/26 06:24:56;;;;;;;;;;;22.80;30.80;;;;;;5066936;28;19925;-61
2024/03/26 06:27:21;;;;;;;;;;;22.90;30.70;;;;;;5070307;28;19929;-61
2024/03/26 06:29:47;;;;;;;;;;;22.90;30.70;;;;;;5060142;28;20292;-61
2024/03/26 06:32:13;;;;;;;;;;;22.90;30.60;;;;;;5062777;28;20013;-61
2024/03/26 06:34:39;;;;;;;;;;;22.90;30.60;;;;;;5068176;28;20374;-61
2024/03/26 06:37:05;;;;;;;;;;;23.00;30.70;;;;;;5061871;28;19977;-61
2024/03/26 06:39:31;;;;;;;;;;;23.00;30.60;;;;;;5065449;28;19978;-61
2024/03/26 06:41:57;;;;;;;;;;;23.00;30.60;;;;;;5061545;28;20487;-61
2024/03/26 06:44:22;;;;;;;;;;;23.10;30.50;;;;;;5059789;28;19955;-61
2024/03/26 06:46:49;;;;;;;;;;;23.10;30.50;;;;;;5065674;28;20443;-60
2024/03/26 06:49:15;;;;;;;;;;;23.10;30.80;;;;;;5058839;28;20241;-60
2024/03/26 06:51:41;;;;;;;;;;;23.20;30.90;;;;;;5060459;28;19925;-60
2024/03/26 06:54:08;;;;;;;;;;;23.20;30.90;;;;;;5062235;28;20333;-61
2024/03/26 06:56:33;;;;;;;;;;;23.30;31.00;;;;;;5061773;28;19929;-61
2024/03/26 06:59:00;;;;;;;;;;;23.30;31.00;;;;;;5062106;28;19932;-61
2024/03/26 07:01:26;;;;;;;;;;;23.30;31.00;;;;;;5061472;28;19924;-60
2024/03/26 07:03:52;;;;;;;;;;;23.40;31.10;;;;;;5064047;28;19924;-59
2024/03/26 07:06:18;;;;;;;;;;;23.40;30.70;;;;;;5063186;28;19980;-66
2024/03/26 07:08:44;;;;;;;;;;;23.50;30.60;;;;;;5063022;28;20130;-61
2024/03/26 07:11:10;;;;;;;;;;;23.50;30.50;;;;;;5064103;28;19932;-61
2024/03/26 07:13:36;;;;;;;;;;;23.60;30.60;;;;;;5061350;28;19986;-62
2024/03/26 07:16:04;;;;;;;;;;;23.60;30.50;;;;;;5062871;28;19974;-61
2024/03/26 07:18:30;;;;;;;;;;;23.60;30.30;;;;;;5060466;28;19940;-61
2024/03/26 07:20:59;;;;;;;;;;;23.70;30.30;;;;;;5061332;28;19947;-62
2024/03/26 07:23:26;;;;;;;;;;;23.70;30.30;;;;;;5056509;28;19932;-62
2024/03/26 07:25:52;;;;;;;;;;;23.80;30.10;;;;;;5042338;28;19928;-62
2024/03/26 07:28:18;;;;;;;;;;;23.80;30.00;;;;;;5059202;28;20282;-62
2024/03/26 07:30:44;;;;;;;;;;;23.90;30.00;;;;;;5055516;28;19936;-63
2024/03/26 07:33:10;;;;;;;;;;;23.90;30.00;;;;;;5041955;28;19983;-62
2024/03/26 07:35:35;;;;;;;;;;;23.90;30.00;;;;;;5060849;28;19964;-62
2024/03/26 07:38:02;;;;;;;;;;;23.90;30.00;;;;;;5064086;28;20270;-62
2024/03/26 07:40:28;;;;;;;;;;;23.90;30.10;;;;;;5060803;28;19924;-61
2024/03/26 07:42:54;;;;;;;;;;;23.90;30.40;;;;;;5061711;28;19936;-61
2024/03/26 07:45:21;;;;;;;;;;;24.00;30.70;;;;;;5048695;28;19933;-61
2024/03/26 07:47:47;;;;;;;;;;;24.00;30.80;;;;;;5057506;28;20017;-62
2024/03/26 07:50:12;;;;;;;;;;;24.10;30.80;;;;;;5058570;28;19947;-62
2024/03/26 07:52:39;;;;;;;;;;;24.10;30.80;;;;;;5055148;28;19999;-67
2024/03/26 07:55:05;;;;;;;;;;;24.10;30.70;;;;;;5058959;28;19939;-62
2024/03/26 07:57:31;;;;;;;;;;;24.10;30.90;;;;;;5053019;28;20428;-59
2024/03/26 07:59:57;;;;;;;;;;;24.20;31.10;;;;;;5057766;28;19968;-59
2024/03/26 08:02:23;;;;;;;;;;;24.20;31.30;;;;;;5056184;28;20385;-60
2024/03/26 08:04:49;;;;;;;;;;;24.30;31.40;;;;;;5057920;28;19928;-59
2024/03/26 08:07:16;;;;;;;;;;;24.20;31.50;;;;;;5059709;28;19933;-59
2024/03/26 08:09:41;;;;;;;;;;;24.30;31.50;;;;;;5058681;28;20377;-60
2024/03/26 08:12:07;;;;;;;;;;;24.30;31.40;;;;;;5058280;28;19932;-59
2024/03/26 08:14:33;;;;;;;;;;;24.30;31.20;;;;;;5061626;28;19939;-59
2024/03/26 08:16:59;;;;;;;;;;;24.30;31.00;;;;;;5058421;28;20373;-59
2024/03/26 08:19:25;;;;;;;;;;;24.30;30.80;;;;;;5056690;28;19985;-60
2024/03/26 08:21:51;;;;;;;;;;;24.40;30.70;;;;;;5057463;28;19932;-60
2024/03/26 08:24:18;;;;;;;;;;;24.40;30.80;;;;;;5053645;28;19932;-59
2024/03/26 08:26:44;;;;;;;;;;;24.40;30.70;;;;;;5057364;28;19932;-57
2024/03/26 08:29:10;;;;;;;;;;;24.40;30.60;;;;;;5058424;28;19952;-58
2024/03/26 08:31:36;;;;;;;;;;;24.40;30.60;;;;;;5060613;28;20286;-58
2024/03/26 08:34:02;;;;;;;;;;;24.50;30.60;;;;;;5045561;28;19928;-59
2024/03/26 08:36:28;;;;;;;;;;;24.50;30.50;;;;;;5057044;28;19924;-59
2024/03/26 08:38:54;;;;;;;;;;;24.50;30.30;;;;;;5059587;28;20381;-59
2024/03/26 08:41:19;;;;;;;;;;;24.50;30.30;;;;;;5063155;28;19928;-55
2024/03/26 08:43:45;;;;;;;;;;;24.50;30.30;;;;;;5060422;28;20266;-59
2024/03/26 08:46:11;;;;;;;;;;;24.60;30.40;;;;;;5059017;28;20267;-59
2024/03/26 08:48:37;;;;;;;;;;;24.60;30.40;;;;;;5063158;28;21332;-58
2024/03/26 08:51:04;;;;;;;;;;;24.60;30.30;;;;;;5035241;28;20460;-59
2024/03/26 08:53:30;;;;;;;;;;;24.70;30.20;;;;;;5061163;28;20337;-59
2024/03/26 08:55:56;;;;;;;;;;;24.70;30.10;;;;;;5057019;28;19998;-58
2024/03/26 08:58:22;;;;;;;;;;;24.70;30.00;;;;;;5061313;28;19928;-59
2024/03/26 09:00:48;;;;;;;;;;;24.70;30.00;;;;;;5057913;28;19924;-55
2024/03/26 09:03:14;;;;;;;;;;;24.70;30.00;;;;;;5061012;28;19929;-58
2024/03/26 09:05:41;;;;;;;;;;;24.70;29.80;;;;;;5058310;28;20371;-58
2024/03/26 09:08:07;;;;;;;;;;;24.80;29.80;;;;;;5040973;28;19947;-59
2024/03/26 09:10:33;;;;;;;;;;;24.80;29.80;;;;;;5042283;28;19933;-59
2024/03/26 09:12:59;;;;;;;;;;;24.80;29.80;;;;;;5056716;28;19935;-58
2024/03/26 09:15:25;;;;;;;;;;;24.80;29.80;;;;;;5059878;28;20015;-59
2024/03/26 09:17:52;;;;;;;;;;;24.80;29.80;;;;;;5059199;28;19928;-58
2024/03/26 09:20:18;;;;;;;;;;;24.90;29.90;;;;;;5057855;28;19943;-59
2024/03/26 09:22:44;;;;;;;;;;;24.90;29.80;;;;;;5057125;28;20293;-58
2024/03/26 09:25:10;;;;;;;;;;;24.90;29.80;;;;;;5057675;28;19929;-59
2024/03/26 09:27:35;;;;;;;;;;;24.90;29.80;;;;;;5054284;28;19933;-58
2024/03/26 09:30:02;;;;;;;;;;;24.90;29.80;;;;;;5058639;28;19932;-58
2024/03/26 09:32:28;;;;;;;;;;;24.90;29.70;;;;;;5054642;28;19932;-58
2024/03/26 09:34:54;;;;;;;;;;;24.90;29.60;;;;;;5054856;28;20373;-59
2024/03/26 09:37:20;;;;;;;;;;;25.00;29.70;;;;;;5058726;28;19935;-59
2024/03/26 09:39:46;;;;;;;;;;;24.90;29.60;;;;;;5056387;28;19929;-58
2024/03/26 09:42:13;;;;;;;;;;;25.00;29.60;;;;;;5040917;28;19939;-58
2024/03/26 09:44:43;;;;;;;;;;;25.00;29.60;;;;;;5055460;28;19928;-58
2024/03/26 09:47:09;;;;;;;;;;;25.00;29.60;;;;;;5055433;28;19933;-58
2024/03/26 09:49:36;;;;;;;;;;;25.10;29.50;;;;;;5062159;28;19932;-58
2024/03/26 09:52:02;;;;;;;;;;;25.10;29.50;;;;;;5057566;28;21400;-58
2024/03/26 09:54:28;;;;;;;;;;;25.10;29.50;;;;;;5055750;28;20380;-59
2024/03/26 09:56:55;;;;;;;;;;;25.10;29.50;;;;;;5038233;28;19932;-58
2024/03/26 09:59:21;;;;;;;;;;;25.10;29.40;;;;;;5054658;28;19932;-58
2024/03/26 10:01:47;;;;;;;;;;;25.10;29.40;;;;;;5054450;28;19928;-58
2024/03/26 10:04:13;;;;;;;;;;;25.20;29.50;;;;;;5054595;28;19933;-60
2024/03/26 10:06:40;;;;;;;;;;;25.20;29.40;;;;;;5058710;28;19925;-59
2024/03/26 10:09:07;;;;;;;;;;;25.20;29.30;;;;;;5053114;28;19939;-59
2024/03/26 10:11:32;;;;;;;;;;;25.30;29.20;;;;;;5055087;28;19928;-59
2024/03/26 10:13:58;;;;;;;;;;;25.30;29.00;;;;;;5054868;28;20366;-59
2024/03/26 10:16:24;;;;;;;;;;;25.30;28.80;;;;;;5059673;28;20404;-59
2024/03/26 10:18:50;;;;;;;;;;;25.30;28.80;;;;;;5060043;28;20278;-59
2024/03/26 10:21:16;;;;;;;;;;;25.30;28.80;;;;;;5056703;28;20041;-59
2024/03/26 10:23:43;;;;;;;;;;;25.30;28.80;;;;;;5058380;28;20293;-59
2024/03/26 10:26:09;;;;;;;;;;;25.30;28.80;;;;;;5060153;28;19939;-58
2024/03/26 10:28:35;;;;;;;;;;;25.40;28.70;;;;;;5058513;28;20373;-58
2024/03/26 10:31:02;;;;;;;;;;;25.40;28.70;;;;;;5062100;28;19950;-58
2024/03/26 10:33:29;;;;;;;;;;;25.50;28.70;;;;;;5058235;28;19928;-58
2024/03/26 10:35:55;;;;;;;;;;;25.50;28.60;;;;;;5057382;28;19932;-58
2024/03/26 10:38:22;;;;;;;;;;;25.50;28.70;;;;;;5062027;28;19925;-58
2024/03/26 10:41:05;;;;;;;;;;;25.50;28.60;;;;;;5062423;28;19933;-58
2024/03/26 10:43:31;;;;;;;;;;;25.50;28.50;;;;;;5056466;28;20393;-57
2024/03/26 10:45:57;;;;;;;;;;;25.60;28.70;;;;;;5065161;28;19935;-56
2024/03/26 10:48:23;;;;;;;;;;;25.60;28.70;;;;;;5067102;28;19933;-58
2024/03/26 10:50:52;;;;;;;;;;;25.60;28.60;;;;;;5061867;28;19933;-58
2024/03/26 10:53:22;;;;;;;;;;;25.60;28.40;;;;;;5065157;28;19932;-58
2024/03/26 10:55:49;;;;;;;;;;;25.60;28.10;;;;;;5065895;28;19924;-58
2024/03/26 10:58:15;;;;;;;;;;;25.60;28.00;;;;;;5064723;28;19928;-57
2024/03/26 11:00:42;;;;;;;;;;;25.60;28.00;;;;;;5066016;28;19924;-60
2024/03/26 11:03:08;;;;;;;;;;;25.60;28.00;;;;;;5044624;28;19932;-58
2024/03/26 11:05:35;;;;;;;;;;;25.60;28.00;;;;;;5066081;28;19944;-57
2024/03/26 11:08:01;;;;;;;;;;;25.60;28.10;;;;;;5060729;28;20019;-57
2024/03/26 11:10:27;;;;;;;;;;;25.60;28.20;;;;;;5063381;28;19951;-62
2024/03/26 11:12:53;;;;;;;;;;;25.60;28.30;;;;;;5061419;28;19974;-60
2024/03/26 11:15:31;;;;;;;;;;;25.70;28.30;;;;;;5087650;28;19995;-67
2024/03/26 11:17:58;;;;;;;;;;;25.70;28.20;;;;;;5064580;28;19929;-62
2024/03/26 11:20:25;;;;;;;;;;;25.70;28.80;;;;;;5058043;28;19943;-59
2024/03/26 11:22:54;;;;;;;;;;;25.70;28.40;;;;;;5058420;28;19925;-58
2024/03/26 11:25:26;;;;;;;;;;;25.70;28.40;;;;;;5059740;28;19971;-57
2024/03/26 11:27:53;;;;;;;;;;;25.80;28.40;;;;;;5060245;28;19929;-63
2024/03/26 11:30:19;;;;;;;;;;;25.80;28.20;;;;;;5058993;28;19924;-60
2024/03/26 11:32:46;;;;;;;;;;;25.80;28.30;;;;;;5056431;28;20075;-60
2024/03/26 11:35:22;;;;;;;;;;;25.80;28.30;;;;;;5057034;28;19937;-61
2024/03/26 11:37:49;;;;;;;;;;;25.80;28.40;;;;;;5057516;28;20022;-61
2024/03/26 11:40:16;;;;;;;;;;;25.90;28.60;;;;;;5041582;28;20047;-60
2024/03/26 11:42:42;;;;;;;;;;;25.90;28.70;;;;;;5055636;28;19947;-60
2024/03/26 11:45:09;;;;;;;;;;;25.90;28.70;;;;;;5056152;28;19936;-60
2024/03/26 11:47:34;;;;;;;;;;;25.90;28.70;;;;;;5056513;28;20019;-59
2024/03/26 11:50:00;;;;;;;;;;;26.00;28.60;;;;;;5054465;28;19924;-61
2024/03/26 11:52:27;;;;;;;;;;;26.00;28.50;;;;;;5057242;28;19973;-60
2024/03/26 11:54:53;;;;;;;;;;;26.00;28.30;;;;;;5056864;28;20002;-62
2024/03/26 11:57:19;;;;;;;;;;;26.00;28.20;;;;;;5057117;28;20381;-61
2024/03/26 11:59:45;;;;;;;;;;;26.00;28.30;;;;;;5061112;28;19960;-60
2024/03/26 12:02:11;;;;;;;;;;;26.00;28.30;;;;;;5057802;28;20653;-60
2024/03/26 12:04:37;;;;;;;;;;;26.00;28.10;;;;;;5058463;28;19924;-60
2024/03/26 12:07:05;;;;;;;;;;;26.00;27.90;;;;;;5041746;28;20309;-61
2024/03/26 12:09:34;;;;;;;;;;;26.00;27.70;;;;;;5039305;28;20010;-60
2024/03/26 12:12:00;;;;;;;;;;;26.00;27.70;;;;;;5054116;28;19937;-60
2024/03/26 12:14:27;;;;;;;;;;;26.00;27.60;;;;;;5038393;28;19928;-60
2024/03/26 12:16:53;;;;;;;;;;;26.00;27.50;;;;;;5057015;28;19928;-60
2024/03/26 12:19:18;;;;;;;;;;;26.00;27.50;;;;;;5054963;28;19931;-60
2024/03/26 12:21:45;;;;;;;;;;;26.00;27.40;;;;;;5056840;28;19940;-60
2024/03/26 12:24:14;;;;;;;;;;;26.00;27.30;;;;;;5076012;28;19932;-60
2024/03/26 12:26:41;;;;;;;;;;;26.00;27.30;;;;;;5056280;28;19940;-60
2024/03/26 12:29:07;;;;;;;;;;;26.00;27.30;;;;;;5057048;28;19928;-60
2024/03/26 12:31:33;;;;;;;;;;;26.00;27.30;;;;;;5057920;28;20374;-59
2024/03/26 12:34:09;;;;;;;;;;;26.10;27.40;;;;;;5055937;28;19924;-60
2024/03/26 12:36:36;;;;;;;;;;;26.10;27.50;;;;;;5056180;28;19955;-59
2024/03/26 12:39:06;;;;;;;;;;;26.10;27.50;;;;;;5039875;28;19982;-60
2024/03/26 12:41:31;;;;;;;;;;;26.10;27.40;;;;;;5057070;28;20302;-60
2024/03/26 12:43:58;;;;;;;;;;;26.10;27.50;;;;;;5057901;28;19959;-59
2024/03/26 12:46:24;;;;;;;;;;;26.10;27.40;;;;;;5059950;28;19947;-60
2024/03/26 12:48:50;;;;;;;;;;;26.20;27.30;;;;;;5058469;28;20297;-59
2024/03/26 12:51:16;;;;;;;;;;;26.20;27.20;;;;;;5057598;28;19928;-59
2024/03/26 12:53:44;;;;;;;;;;;26.30;27.10;;;;;;5056204;28;19939;-60
2024/03/26 12:56:09;;;;;;;;;;;26.20;26.90;;;;;;5057918;28;19943;-59
2024/03/26 12:58:35;;;;;;;;;;;26.30;26.90;;;;;;5058049;28;19932;-60
2024/03/26 13:01:01;;;;;;;;;;;26.30;26.90;;;;;;5039162;28;19931;-60
2024/03/26 13:03:27;;;;;;;;;;;26.30;26.90;;;;;;5039651;28;20397;-61
2024/03/26 13:05:53;;;;;;;;;;;26.30;27.00;;;;;;5060206;28;20429;-61
2024/03/26 13:08:19;;;;;;;;;;;26.40;27.20;;;;;;5057570;28;19939;-61
2024/03/26 13:10:45;;;;;;;;;;;26.40;27.30;;;;;;5057553;28;19947;-59
2024/03/26 13:13:12;;;;;;;;;;;26.40;27.20;;;;;;5060735;28;20535;-59
2024/03/26 13:15:38;;;;;;;;;;;26.40;27.30;;;;;;5062002;28;21530;-57
2024/03/26 13:18:04;;;;;;;;;;;26.40;27.30;;;;;;5059538;28;20136;-57
2024/03/26 13:20:31;;;;;;;;;;;26.40;27.30;;;;;;5058797;28;19933;-57
2024/03/26 13:22:57;;;;;;;;;;;26.30;27.30;;;;;;5059274;28;20521;-58
2024/03/26 13:25:23;;;;;;;;;;;26.30;27.20;;;;;;5058457;28;19933;-59
2024/03/26 13:27:49;;;;;;;;;;;26.30;27.20;;;;;;5040026;28;20439;-59
2024/03/26 13:30:14;;;;;;;;;;;26.30;27.30;;;;;;5059729;28;19924;-58
2024/03/26 13:32:40;;;;;;;;;;;26.30;27.30;;;;;;5054526;28;20343;-59
2024/03/26 13:35:09;;;;;;;;;;;26.20;27.30;;;;;;5059197;28;19943;-59
2024/03/26 13:37:36;;;;;;;;;;;26.30;27.30;;;;;;5057731;28;19929;-59
2024/03/26 13:40:04;;;;;;;;;;;26.30;27.30;;;;;;5047615;28;19929;-58
2024/03/26 13:42:30;;;;;;;;;;;26.30;27.30;;;;;;5055957;28;19928;-58
2024/03/26 13:44:56;;;;;;;;;;;26.20;27.30;;;;;;5056109;28;19957;-58
2024/03/26 13:47:23;;;;;;;;;;;26.30;27.30;;;;;;5055004;28;20430;-59
2024/03/26 13:49:49;;;;;;;;;;;26.20;27.30;;;;;;5057826;28;19969;-58
2024/03/26 13:52:15;;;;;;;;;;;26.30;27.20;;;;;;5055943;28;19928;-58
2024/03/26 13:54:41;;;;;;;;;;;26.20;27.10;;;;;;5057949;28;19975;-58
2024/03/26 13:57:07;;;;;;;;;;;26.30;27.20;;;;;;5057538;28;19933;-59
2024/03/26 13:59:32;;;;;;;;;;;26.30;27.10;;;;;;5055662;28;19936;-59
2024/03/26 14:01:59;;;;;;;;;;;26.30;27.00;;;;;;5057490;28;19935;-59
2024/03/26 14:04:24;;;;;;;;;;;26.30;27.10;;;;;;5056026;28;19925;-59
2024/03/26 14:06:51;;;;;;;;;;;26.30;27.10;;;;;;5061678;28;19925;-60
2024/03/26 14:09:18;;;;;;;;;;;26.30;27.10;;;;;;5058258;28;20405;-59